PWSweather.com
Personal Weather Stations
Station Observations
SANDHURSTWX
SandhurstGB

SandhurstGB

Lat: 51.3522, Lon: -0.7739

Elevation: 272.3

Station Type: Davis VP2

www.sandhurstweather.org.uk

High Low Average
Temperature 68.0°F20.0°C 55.5°F13.1°C 61.2°F16.2°C
Dew Point 59.9°F15.5°C 47.1°F8.4°C 53.5°F11.9°C
Winds 10.4 mph 16.7 kmh 2.3 mph 3.7 kmh 5.0 mph WSW8.0 kmh WSW
Wind Gusts 16.1 mph25.9 kmh 2.3 mph3.7 kmh 8.0 mph12.9 kmh
Humidity 97% 51% 78%
Pressure 30.07 in1018.3 mb 29.95 in1014.2 mb -
Precipitation 0.24 in6.1 mm - -
Hour Temp Dew Point Humidity Winds Wind Gusts Pressure Precip Precip Rate Daily Precip Total
12:00 AM 58.8°F14.9°C 55.0°F12.8°C 87% 2.3 mph SSE3.7 kmh SSE 5.8 mph9.3 kmh 30.07 in1018.3 mb - 0.00 in0.0 mm 0.00 in0.0 mm
01:00 AM 59.3°F15.2°C 55.1°F12.8°C 86% 5.8 mph S9.3 kmh S 5.8 mph9.3 kmh 30.05 in1017.6 mb - 0.00 in0.0 mm 0.00 in0.0 mm
02:00 AM 59.8°F15.4°C 55.9°F13.3°C 87% 4.6 mph SW7.4 kmh SW 4.6 mph7.4 kmh 30.02 in1016.6 mb - 0.00 in0.0 mm 0.00 in0.0 mm
03:00 AM 59.0°F15.0°C 56.6°F13.7°C 92% 2.3 mph S3.7 kmh S 5.8 mph9.3 kmh 29.99 in1015.6 mb - 0.01 in0.3 mm 0.01 in0.3 mm
04:00 AM 58.9°F14.9°C 57.4°F14.1°C 95% 2.3 mph SSW3.7 kmh SSW 3.5 mph5.6 kmh 29.97 in1014.9 mb - 0.16 in4.1 mm 0.17 in4.3 mm
05:00 AM 59.1°F15.1°C 58.0°F14.4°C 96% 3.5 mph SSW5.6 kmh SSW 6.9 mph11.1 kmh 29.95 in1014.2 mb - 0.07 in1.8 mm 0.24 in6.1 mm
06:00 AM 59.6°F15.3°C 58.5°F14.7°C 96% 2.3 mph SSW3.7 kmh SSW 3.5 mph5.6 kmh 29.95 in1014.2 mb - 0.00 in0.0 mm 0.24 in6.1 mm
07:00 AM 60.4°F15.8°C 59.5°F15.3°C 97% 3.5 mph SSW5.6 kmh SSW 4.6 mph7.4 kmh 29.95 in1014.2 mb - 0.01 in0.3 mm 0.24 in6.1 mm
08:00 AM 61.0°F16.1°C 59.9°F15.5°C 96% 2.3 mph WSW3.7 kmh WSW 3.5 mph5.6 kmh 29.95 in1014.2 mb - 0.00 in0.0 mm 0.24 in6.1 mm
09:00 AM 62.1°F16.7°C 59.1°F15.1°C 90% 3.5 mph W5.6 kmh W 8.1 mph13.0 kmh 29.95 in1014.2 mb - 0.00 in0.0 mm 0.24 in6.1 mm
10:00 AM 61.3°F16.3°C 54.0°F12.2°C 77% 6.9 mph W11.1 kmh W 8.1 mph13.0 kmh 29.96 in1014.6 mb - 0.00 in0.0 mm 0.24 in6.1 mm
11:00 AM 65.0°F18.3°C 52.5°F11.4°C 64% 9.2 mph W14.8 kmh W 15.0 mph24.1 kmh 29.97 in1014.9 mb - 0.00 in0.0 mm 0.24 in6.1 mm
12:00 PM 65.1°F18.4°C 50.0°F10.0°C 58% 5.8 mph NW9.3 kmh NW 11.5 mph18.5 kmh 29.98 in1015.2 mb - 0.00 in0.0 mm 0.24 in6.1 mm
01:00 PM 68.0°F20.0°C 49.7°F9.8°C 52% 5.8 mph W9.3 kmh W 13.8 mph22.2 kmh 29.98 in1015.2 mb - 0.00 in0.0 mm 0.24 in6.1 mm
02:00 PM 65.8°F18.8°C 47.1°F8.4°C 51% 8.1 mph W13.0 kmh W 16.1 mph25.9 kmh 29.98 in1015.2 mb - 0.00 in0.0 mm 0.24 in6.1 mm
03:00 PM 66.0°F18.9°C 48.4°F9.1°C 53% 4.6 mph WNW7.4 kmh WNW 11.5 mph18.5 kmh 29.97 in1014.9 mb - 0.00 in0.0 mm 0.24 in6.1 mm
04:00 PM 64.8°F18.2°C 49.2°F9.6°C 57% 5.8 mph WSW9.3 kmh WSW 10.4 mph16.7 kmh 29.97 in1014.9 mb - 0.00 in0.0 mm 0.24 in6.1 mm
05:00 PM 64.0°F17.8°C 50.7°F10.4°C 62% 10.4 mph WNW16.7 kmh WNW 12.7 mph20.4 kmh 29.98 in1015.2 mb - 0.00 in0.0 mm 0.24 in6.1 mm
06:00 PM 62.3°F16.8°C 51.6°F10.9°C 68% 3.5 mph SW5.6 kmh SW 9.2 mph14.8 kmh 29.99 in1015.6 mb - 0.00 in0.0 mm 0.24 in6.1 mm
07:00 PM 60.5°F15.8°C 52.9°F11.6°C 76% 3.5 mph WSW5.6 kmh WSW 9.2 mph14.8 kmh 30.00 in1015.9 mb - 0.00 in0.0 mm 0.24 in6.1 mm
08:00 PM 58.9°F14.9°C 52.4°F11.3°C 79% 2.3 mph W3.7 kmh W 2.3 mph3.7 kmh 30.02 in1016.6 mb - 0.00 in0.0 mm 0.24 in6.1 mm
09:00 PM 56.9°F13.8°C 51.5°F10.8°C 82% 3.5 mph W5.6 kmh W 3.5 mph5.6 kmh 30.04 in1017.3 mb - 0.00 in0.0 mm 0.24 in6.1 mm
10:00 PM 55.7°F13.2°C 50.6°F10.3°C 83% 6.9 mph WNW11.1 kmh WNW 8.1 mph13.0 kmh 30.05 in1017.6 mb - 0.00 in0.0 mm 0.24 in6.1 mm
11:00 PM 55.5°F13.1°C 49.4°F9.7°C 80% 5.8 mph WNW9.3 kmh WNW 8.1 mph13.0 kmh 30.07 in1018.3 mb - 0.00 in0.0 mm 0.25 in6.4 mm